Time;durP1;ratioP1;P1;durP2;ratioP2;P2;SDS_P1;SDS_P2;PMS_P1;PMS_P2;Temp;Humidity;BMP_temperature;BMP_pressure;BME280_temperature;BME280_humidity;BME280_pressure;Samples;Min_cycle;Max_cycle;Signal;HPM_P1;HPM_P2
2023/01/06 00:01:05;;;;;;;8.05;3.40;;;;;;;9.63;100.00;101311.91;4988170;28;20066;-78
2023/01/06 00:03:31;;;;;;;8.15;3.42;;;;;;;9.61;100.00;101311.22;4987678;28;20130;-79
2023/01/06 00:06:00;;;;;;;7.60;3.78;;;;;;;9.58;100.00;101305.44;4989315;28;20114;-77
2023/01/06 00:08:27;;;;;;;6.65;3.20;;;;;;;9.57;100.00;101299.38;4989076;28;20110;-78
2023/01/06 00:10:54;;;;;;;10.55;3.70;;;;;;;9.58;100.00;101308.88;4989132;28;20102;-78
2023/01/06 00:13:20;;;;;;;5.97;3.55;;;;;;;9.63;100.00;101309.31;4994358;28;20522;-78
2023/01/06 00:15:47;;;;;;;7.97;3.75;;;;;;;9.56;100.00;101302.94;4991614;28;20102;-79
2023/01/06 00:18:14;;;;;;;11.13;3.72;;;;;;;9.52;100.00;101300.72;4997061;28;20055;-76
2023/01/06 00:20:41;;;;;;;8.02;4.15;;;;;;;9.57;100.00;101302.00;4975725;28;20123;-79
2023/01/06 00:23:09;;;;;;;11.90;3.92;;;;;;;9.49;100.00;101285.31;4977292;28;20134;-79
2023/01/06 00:25:35;;;;;;;9.60;4.50;;;;;;;9.60;100.00;101306.94;4977074;28;20051;-78
2023/01/06 00:28:02;;;;;;;8.57;4.85;;;;;;;9.61;100.00;101290.31;4970107;28;20051;-78
2023/01/06 00:30:29;;;;;;;8.35;4.75;;;;;;;9.63;100.00;101303.25;4979022;28;20054;-78
2023/01/06 00:32:55;;;;;;;11.90;4.90;;;;;;;9.67;100.00;101298.59;4973743;28;20081;-78
2023/01/06 00:35:22;;;;;;;12.55;4.50;;;;;;;9.69;100.00;101301.88;4981719;28;20401;-78
2023/01/06 00:37:48;;;;;;;7.30;4.22;;;;;;;9.71;100.00;101302.59;4983105;28;20142;-79
2023/01/06 00:40:16;;;;;;;11.15;5.95;;;;;;;9.72;100.00;101306.84;4993548;28;20129;-79
2023/01/06 00:42:43;;;;;;;8.02;4.65;;;;;;;9.69;100.00;101287.03;5003128;28;20106;-80
2023/01/06 00:45:10;;;;;;;12.32;4.40;;;;;;;9.75;100.00;101290.91;4994860;28;20059;-81
2023/01/06 00:47:37;;;;;;;7.60;4.03;;;;;;;9.76;100.00;101289.94;5006213;28;20050;-81
2023/01/06 00:50:04;;;;;;;5.82;4.20;;;;;;;9.77;100.00;101295.03;5008071;28;20078;-81
2023/01/06 00:52:30;;;;;;;7.25;4.00;;;;;;;9.85;100.00;101289.13;5008396;28;20085;-80
2023/01/06 00:54:57;;;;;;;8.05;3.55;;;;;;;9.81;100.00;101285.97;5007424;28;20046;-79
2023/01/06 00:57:25;;;;;;;11.63;4.10;;;;;;;9.78;100.00;101282.78;5007410;28;20096;-80
2023/01/06 00:59:52;;;;;;;8.25;3.83;;;;;;;9.84;100.00;101283.09;5002274;28;20110;-80
2023/01/06 01:02:18;;;;;;;11.02;3.70;;;;;;;9.73;100.00;101261.47;4989089;28;20074;-80
2023/01/06 01:04:45;;;;;;;6.53;3.53;;;;;;;9.77;100.00;101268.06;4987833;28;20118;-80
2023/01/06 01:07:12;;;;;;;7.72;3.65;;;;;;;9.77;100.00;101268.91;4987382;28;20542;-80
2023/01/06 01:09:38;;;;;;;9.10;4.93;;;;;;;9.79;100.00;101271.38;4996848;28;20224;-81
2023/01/06 01:12:13;;;;;;;8.55;3.80;;;;;;;9.76;100.00;101266.44;5007148;28;20106;-79
2023/01/06 01:14:43;;;;;;;6.25;3.63;;;;;;;9.73;100.00;101258.84;5006944;28;20086;-79
2023/01/06 01:17:13;;;;;;;5.93;3.42;;;;;;;9.75;100.00;101262.97;4992297;28;20058;-80
2023/01/06 01:19:41;;;;;;;5.45;3.22;;;;;;;9.77;100.00;101262.84;4990711;28;20082;-81
2023/01/06 01:22:08;;;;;;;6.90;3.40;;;;;;;9.73;100.00;101256.25;4993271;28;20082;-82
2023/01/06 01:24:35;;;;;;;6.82;3.45;;;;;;;9.74;100.00;101263.94;5004928;28;20485;-82
2023/01/06 01:27:05;;;;;;;7.15;3.33;;;;;;;9.76;100.00;101263.81;5007766;28;20086;-81
2023/01/06 01:29:32;;;;;;;5.50;3.33;;;;;;;9.77;100.00;101258.44;5002422;28;20085;-82
2023/01/06 01:31:59;;;;;;;8.20;3.55;;;;;;;9.75;100.00;101259.53;5002921;28;20130;-81
2023/01/06 01:34:27;;;;;;;5.93;3.25;;;;;;;9.74;100.00;101263.94;5006922;28;20484;-81
2023/01/06 01:36:55;;;;;;;5.85;3.20;;;;;;;9.72;100.00;101263.25;5007210;28;20039;-81
2023/01/06 01:39:24;;;;;;;6.60;3.22;;;;;;;9.75;100.00;101265.59;4994950;28;20043;-81
2023/01/06 01:41:51;;;;;;;5.97;3.45;;;;;;;9.74;100.00;101268.34;4988091;28;20625;-81
2023/01/06 01:45:06;;;;;;;6.82;3.40;;;;;;;9.73;100.00;101270.13;4987257;28;20106;-81
2023/01/06 01:47:44;;;;;;;4.90;3.22;;;;;;;9.77;100.00;101268.91;5006669;28;20118;-81
2023/01/06 01:50:20;;;;;;;6.35;3.17;;;;;;;9.74;100.00;101268.34;5005998;28;20077;-79
2023/01/06 01:52:51;;;;;;;7.95;3.40;;;;;;;9.78;100.00;101274.97;5001197;28;20070;-80
2023/01/06 01:55:19;;;;;;;7.32;3.40;;;;;;;9.77;100.00;101268.91;4988056;28;20084;-80
2023/01/06 01:57:59;;;;;;;6.68;3.20;;;;;;;9.78;100.00;101269.72;4987837;28;20071;-81
2023/01/06 02:00:26;;;;;;;9.43;3.67;;;;;;;9.80;100.00;101268.63;4988346;28;20081;-81
2023/01/06 02:02:54;;;;;;;10.93;3.55;;;;;;;9.78;100.00;101254.03;5007419;28;20074;-82
2023/01/06 02:05:24;;;;;;;5.63;3.40;;;;;;;9.79;100.00;101256.53;5007157;28;20129;-80
2023/01/06 02:07:51;;;;;;;6.32;3.20;;;;;;;9.84;100.00;101253.50;4985460;28;20055;-79
2023/01/06 02:10:20;;;;;;;4.50;2.97;;;;;;;9.82;100.00;101255.44;4987008;28;20082;-80
2023/01/06 02:12:51;;;;;;;10.85;3.42;;;;;;;9.80;100.00;101252.13;4985927;28;20106;-82
2023/01/06 02:15:19;;;;;;;8.05;3.10;;;;;;;9.82;100.00;101248.41;4988200;28;20104;-78
2023/01/06 02:18:30;;;;;;;5.63;3.40;;;;;;;9.86;100.00;101251.59;5005288;28;20125;-79
2023/01/06 02:21:10;;;;;;;10.63;3.10;;;;;;;9.90;100.00;101250.34;4942452;28;20090;-81
2023/01/06 02:26:53;;;;;;;9.40;3.00;;;;;;;9.93;100.00;101232.56;4978272;28;20103;-82
2023/01/06 02:29:45;;;;;;;10.27;2.78;;;;;;;9.91;100.00;101234.53;4960674;28;20120;-82
2023/01/06 02:32:26;;;;;;;5.20;2.80;;;;;;;9.92;100.00;101230.13;4960263;28;20142;-80
2023/01/06 02:35:06;;;;;;;10.35;3.00;;;;;;;9.96;100.00;101229.69;4959418;28;20501;-82
2023/01/06 02:37:47;;;;;;;9.60;2.97;;;;;;;9.96;100.00;101226.25;4975767;28;20082;-82
2023/01/06 02:40:26;;;;;;;8.63;3.13;;;;;;;9.92;100.00;101230.94;4997914;28;20482;-80
2023/01/06 02:43:05;;;;;;;8.13;3.25;;;;;;;9.71;100.00;101203.28;4979907;28;20131;-80
2023/01/06 02:45:42;;;;;;;8.48;3.30;;;;;;;9.75;100.00;101197.66;4983713;28;20129;-81
2023/01/06 02:48:13;;;;;;;5.75;2.83;;;;;;;9.87;100.00;101214.84;4998680;28;20112;-80
2023/01/06 02:50:43;;;;;;;5.43;2.67;;;;;;;9.83;100.00;101210.88;4998749;28;20097;-79
2023/01/06 02:53:20;;;;;;;9.77;3.22;;;;;;;9.81;100.00;101204.13;4988811;28;20078;-82
2023/01/06 02:55:49;;;;;;;6.40;2.95;;;;;;;9.86;100.00;101207.97;4979743;28;20077;-80
2023/01/06 02:58:24;;;;;;;8.75;2.97;;;;;;;9.87;100.00;101200.97;4978347;28;20515;-81
2023/01/06 03:00:56;;;;;;;6.25;3.47;;;;;;;9.90;100.00;101206.75;4984945;28;20133;-81
2023/01/06 03:03:28;;;;;;;8.40;2.90;;;;;;;9.93;100.00;101203.00;4999757;28;20078;-80
2023/01/06 03:05:59;;;;;;;4.50;2.80;;;;;;;9.92;100.00;101204.78;4999711;28;20474;-81
2023/01/06 03:08:28;;;;;;;7.53;2.67;;;;;;;9.91;100.00;101199.72;4988632;28;20086;-82
2023/01/06 03:10:57;;;;;;;7.28;2.85;;;;;;;9.84;100.00;101201.22;4980113;28;20134;-81
2023/01/06 03:13:29;;;;;;;6.15;3.00;;;;;;;9.86;100.00;101184.44;4980421;28;20145;-80
2023/01/06 03:15:56;;;;;;;7.28;2.65;;;;;;;9.88;100.00;101192.16;4986910;28;20125;-82
2023/01/06 03:18:24;;;;;;;6.13;2.58;;;;;;;9.92;100.00;101194.31;5000365;28;20161;-81
2023/01/06 03:20:56;;;;;;;4.85;2.65;;;;;;;9.93;100.00;101188.13;5000692;28;20089;-81
2023/01/06 03:23:23;;;;;;;4.65;2.67;;;;;;;9.85;100.00;101180.19;4991832;28;20047;-82
2023/01/06 03:25:50;;;;;;;5.35;2.85;;;;;;;9.94;100.00;101183.72;4979823;28;20158;-80
2023/01/06 03:28:17;;;;;;;4.60;2.67;;;;;;;9.85;100.00;101193.25;4980097;28;20133;-81
2023/01/06 03:30:52;;;;;;;4.75;2.88;;;;;;;9.74;100.00;101189.94;4982817;28;20130;-82
2023/01/06 03:33:23;;;;;;;5.45;3.13;;;;;;;9.81;100.00;101181.41;4999305;28;20085;-82
2023/01/06 03:36:07;;;;;;;4.50;2.47;;;;;;;9.83;100.00;101183.91;4999540;28;20082;-80
2023/01/06 03:38:47;;;;;;;8.07;2.92;;;;;;;9.87;100.00;101175.66;4998988;28;20106;-81
2023/01/06 03:43:10;;;;;;;5.90;3.03;;;;;;;9.85;100.00;101176.75;4999889;28;20054;-82
2023/01/06 03:44:17;;;;;;;4.63;2.15;;;;;;;9.92;100.00;101178.66;4999083;28;20050;-82
2023/01/06 03:46:50;;;;;;;;;;;;;;;9.94;100.00;101175.88;4987024;28;20495;-82
2023/01/06 03:49:21;;;;;;;7.40;2.97;;;;;;;9.90;100.00;101182.38;4984421;28;19922;-83
2023/01/06 03:51:54;;;;;;;6.57;3.67;;;;;;;9.88;100.00;101173.84;4984200;28;20127;-83
2023/01/06 03:54:31;;;;;;;5.43;2.83;;;;;;;9.87;100.00;101174.81;5002818;28;20130;-83
2023/01/06 03:57:04;;;;;;;6.40;2.67;;;;;;;9.83;100.00;101165.59;5003952;28;20113;-82
2023/01/06 03:59:35;;;;;;;3.85;2.30;;;;;;;9.85;100.00;101148.81;4964411;29;20413;-82
2023/01/06 04:02:05;;;;;;;4.63;2.70;;;;;;;9.81;100.00;101133.56;4979455;28;20419;-81
2023/01/06 04:04:31;;;;;;;7.43;2.28;;;;;;;9.85;100.00;101140.16;4982621;28;20105;-80
2023/01/06 04:06:59;;;;;;;3.38;2.33;;;;;;;9.91;100.00;101134.38;4982937;28;20114;-82
2023/01/06 04:09:26;;;;;;;6.60;2.40;;;;;;;9.92;99.71;101142.03;4996471;28;20054;-80
2023/01/06 04:14:37;;;;;;;3.17;2.17;;;;;;;9.92;99.24;101143.88;4999282;28;20247;-82
2023/01/06 04:17:03;;;;;;;3.08;1.95;;;;;;;9.90;98.83;101137.94;4997784;28;20137;-80
2023/01/06 04:19:30;;;;;;;3.80;2.47;;;;;;;9.85;98.58;101140.97;5004104;28;20141;-82
2023/01/06 04:21:56;;;;;;;5.00;2.50;;;;;;;9.62;99.10;101113.47;5007261;28;20562;-82
2023/01/06 04:24:24;;;;;;;5.28;2.30;;;;;;;9.85;98.44;101140.97;5006031;28;20535;-80
2023/01/06 04:26:51;;;;;;;4.80;2.40;;;;;;;9.82;98.70;101140.44;5007874;28;20074;-80
2023/01/06 04:29:18;;;;;;;5.03;2.17;;;;;;;9.80;98.47;101142.34;5009156;28;20058;-81
2023/01/06 04:31:48;;;;;;;3.65;1.83;;;;;;;9.85;98.36;101134.94;4993693;28;20114;-82
2023/01/06 04:34:14;;;;;;;3.85;2.28;;;;;;;9.86;98.09;101136.56;4983895;28;20056;-81
2023/01/06 04:36:41;;;;;;;4.78;2.05;;;;;;;9.84;98.22;101122.81;4982001;28;20617;-80
2023/01/06 04:39:08;;;;;;;4.18;2.38;;;;;;;9.83;97.82;101108.09;4994419;28;20140;-81
2023/01/06 04:41:36;;;;;;;3.10;1.90;;;;;;;9.86;97.21;101113.88;5000583;28;20115;-80
2023/01/06 04:44:02;;;;;;;4.28;2.20;;;;;;;9.86;97.03;101111.25;5000928;28;20046;-80
2023/01/06 04:46:29;;;;;;;5.05;2.17;;;;;;;9.83;96.69;101108.09;4994572;28;20561;-81
2023/01/06 04:48:56;;;;;;;3.40;1.80;;;;;;;9.84;96.41;101115.81;5000423;28;20133;-80
2023/01/06 04:51:22;;;;;;;2.15;1.80;;;;;;;9.84;96.64;101101.91;4999074;28;20115;-79
2023/01/06 04:53:49;;;;;;;5.07;2.75;;;;;;;9.82;96.38;101103.84;4999836;28;20077;-81
2023/01/06 04:56:15;;;;;;;5.05;1.85;;;;;;;9.87;95.89;101101.63;5001004;28;20128;-80
2023/01/06 04:58:43;;;;;;;8.40;2.20;;;;;;;9.90;96.10;101107.41;5003286;28;20494;-80
2023/01/06 05:01:12;;;;;;;5.10;2.05;;;;;;;9.83;95.51;101113.31;4995902;28;20093;-82
2023/01/06 05:03:39;;;;;;;3.65;1.92;;;;;;;9.83;95.32;101108.09;4988274;28;20043;-80
2023/01/06 05:06:08;;;;;;;4.22;2.30;;;;;;;9.81;95.11;101091.72;4985742;28;20124;-79
2023/01/06 05:08:35;;;;;;;5.53;1.67;;;;;;;9.85;95.02;101103.56;4989075;28;20066;-80
2023/01/06 05:11:04;;;;;;;2.85;1.60;;;;;;;9.87;94.33;101099.00;5004299;28;20073;-81
2023/01/06 05:13:32;;;;;;;3.47;1.63;;;;;;;9.85;94.70;101114.00;5005073;28;20054;-82
2023/01/06 05:16:00;;;;;;;3.70;1.63;;;;;;;9.90;94.50;101111.81;4999483;28;20054;-81
2023/01/06 05:18:28;;;;;;;3.60;2.05;;;;;;;9.89;94.56;101105.75;5004947;28;20046;-80
2023/01/06 05:20:55;;;;;;;4.10;1.73;;;;;;;9.89;94.31;101089.25;5006632;28;20065;-83
2023/01/06 05:23:22;;;;;;;2.20;1.50;;;;;;;9.89;94.41;101099.69;5005271;28;20076;-81
2023/01/06 05:25:50;;;;;;;6.30;2.00;;;;;;;9.94;94.26;101093.06;4967282;29;20051;-82
2023/01/06 05:28:18;;;;;;;5.03;2.33;;;;;;;9.96;93.76;101095.53;4965036;29;20427;-80
2023/01/06 05:30:45;;;;;;;3.60;1.58;;;;;;;9.97;93.23;101091.97;4977326;28;20080;-83
2023/01/06 05:33:13;;;;;;;4.63;1.80;;;;;;;9.95;93.53;101093.88;5006172;28;20110;-84
2023/01/06 05:35:40;;;;;;;4.82;1.73;;;;;;;9.97;93.89;101092.78;5006886;28;20050;-82
2023/01/06 05:38:06;;;;;;;2.47;1.38;;;;;;;9.94;93.92;101092.22;4991834;28;20082;-81
2023/01/06 05:40:34;;;;;;;2.20;1.33;;;;;;;10.05;93.74;101099.94;5004815;28;20046;-82
2023/01/06 05:43:01;;;;;;;7.32;1.73;;;;;;;10.02;93.32;101094.97;5001244;28;20110;-81
2023/01/06 05:45:27;;;;;;;3.13;1.73;;;;;;;9.97;93.71;101099.78;4993695;28;20142;-83
2023/01/06 05:47:54;;;;;;;3.85;1.80;;;;;;;10.01;94.04;101105.56;4983404;28;20093;-81
2023/01/06 05:50:22;;;;;;;3.65;1.58;;;;;;;10.03;93.83;101094.00;4984002;28;20141;-79
2023/01/06 05:52:48;;;;;;;1.75;1.27;;;;;;;10.00;93.69;101102.13;4983234;28;20110;-82
2023/01/06 05:55:15;;;;;;;3.80;1.70;;;;;;;10.03;93.61;101096.63;4995941;28;20078;-83
2023/01/06 05:57:42;;;;;;;3.63;1.58;;;;;;;9.98;93.65;101098.84;5001061;28;20050;-83
2023/01/06 06:00:10;;;;;;;2.33;1.48;;;;;;;9.96;94.04;101093.75;5005041;28;20082;-84
2023/01/06 06:02:36;;;;;;;2.65;1.85;;;;;;;9.99;94.03;101082.19;4986902;28;20119;-84
2023/01/06 06:05:03;;;;;;;2.95;1.80;;;;;;;10.04;93.35;101087.00;4987641;28;20093;-84
2023/01/06 06:07:31;;;;;;;3.72;2.00;;;;;;;10.05;93.83;101092.09;4987320;28;20105;-81
2023/01/06 06:09:58;;;;;;;1.65;1.52;;;;;;;10.04;93.74;101098.28;4984593;28;20081;-82
2023/01/06 06:12:24;;;;;;;3.70;2.00;;;;;;;9.95;93.79;101088.66;4984702;28;20484;-82
2023/01/06 06:14:51;;;;;;;3.78;1.77;;;;;;;9.90;93.96;101086.50;4990194;28;20080;-85
2023/01/06 06:17:17;;;;;;;3.83;1.92;;;;;;;9.91;94.24;101097.78;4987220;28;20074;-82
2023/01/06 06:19:44;;;;;;;4.68;2.22;;;;;;;9.88;94.16;101088.41;4982889;28;20133;-82
2023/01/06 06:22:11;;;;;;;2.00;1.20;;;;;;;9.89;94.36;101087.47;4983527;28;20458;-82
2023/01/06 06:24:39;;;;;;;3.47;1.90;;;;;;;9.87;94.22;101092.00;4986938;28;20049;-82
2023/01/06 06:27:06;;;;;;;4.90;1.85;;;;;;;9.92;94.31;101084.53;5006411;28;20097;-85
2023/01/06 06:29:38;;;;;;;2.45;1.60;;;;;;;9.97;94.60;101091.97;5008527;28;20479;-82
2023/01/06 06:32:05;;;;;;;3.15;1.52;;;;;;;9.97;94.40;101086.72;4990777;28;20046;-81
2023/01/06 06:34:31;;;;;;;2.75;1.65;;;;;;;10.00;94.83;101096.91;4989121;28;20070;-83
2023/01/06 06:36:58;;;;;;;2.33;1.70;;;;;;;9.99;94.54;101095.25;4988393;28;20046;-84
2023/01/06 06:39:25;;;;;;;2.95;1.80;;;;;;;10.02;94.32;101100.22;4984830;28;20081;-83
2023/01/06 06:41:55;;;;;;;3.97;1.50;;;;;;;10.03;94.65;101091.41;5003630;28;20050;-82
2023/01/06 06:44:21;;;;;;;3.17;2.10;;;;;;;10.04;94.56;101073.91;5001989;28;20515;-83
2023/01/06 06:46:48;;;;;;;2.92;1.60;;;;;;;10.06;94.51;101077.22;4988482;28;20110;-82
2023/01/06 06:49:14;;;;;;;3.78;1.63;;;;;;;10.07;94.74;101077.06;4982424;28;20050;-81
2023/01/06 06:51:41;;;;;;;1.75;1.65;;;;;;;10.08;95.11;101065.66;4981940;28;20144;-80
2023/01/06 06:54:08;;;;;;;3.97;2.20;;;;;;;10.12;94.45;101053.94;4986688;28;20054;-81
2023/01/06 06:56:35;;;;;;;2.70;1.48;;;;;;;10.09;94.39;101056.84;5002537;28;20050;-80
2023/01/06 06:59:03;;;;;;;3.17;1.98;;;;;;;10.08;94.19;101067.44;4999743;28;20092;-83
2023/01/06 07:01:30;;;;;;;3.88;2.50;;;;;;;10.13;94.22;101060.00;4988375;28;20118;-83
2023/01/06 07:03:57;;;;;;;3.60;2.03;;;;;;;10.07;94.50;101066.63;4997590;28;20050;-83
2023/01/06 07:06:26;;;;;;;4.40;2.80;;;;;;;10.04;94.59;101066.91;5000406;28;20054;-83
2023/01/06 07:08:53;;;;;;;9.80;6.30;;;;;;;10.06;94.35;101074.59;4999775;28;20435;-82
2023/01/06 07:11:20;;;;;;;7.35;4.75;;;;;;;10.08;94.38;101057.81;4999357;28;20475;-82
2023/01/06 07:13:47;;;;;;;7.25;5.32;;;;;;;10.14;94.17;101061.66;4999779;28;20058;-82
2023/01/06 07:16:15;;;;;;;3.40;3.10;;;;;;;10.03;94.27;101054.78;4988080;28;20074;-81
2023/01/06 07:18:42;;;;;;;2.42;1.67;;;;;;;10.10;94.29;101049.81;4979366;28;20142;-83
2023/01/06 07:21:09;;;;;;;4.55;3.60;;;;;;;9.85;94.38;101027.75;4979691;28;20081;-83
2023/01/06 07:23:35;;;;;;;3.35;3.05;;;;;;;9.94;94.20;101039.94;4982548;28;20161;-80
2023/01/06 07:26:03;;;;;;;2.35;2.15;;;;;;;9.95;94.14;101049.44;4998353;28;20054;-82
2023/01/06 07:28:34;;;;;;;3.95;2.33;;;;;;;9.89;94.37;101042.19;5000842;28;20168;-82
2023/01/06 07:31:02;;;;;;;6.18;2.30;;;;;;;9.91;94.42;101051.53;5000881;28;20077;-81
2023/01/06 07:33:30;;;;;;;2.55;1.55;;;;;;;9.91;94.58;101051.53;5002264;28;20133;-83
2023/01/06 07:35:57;;;;;;;3.38;3.00;;;;;;;9.90;94.72;101049.91;5001189;28;20065;-83
2023/01/06 07:38:25;;;;;;;3.17;1.73;;;;;;;9.94;94.71;101046.00;5001910;28;20085;-84
2023/01/06 07:40:51;;;;;;;7.07;4.72;;;;;;;9.96;94.49;101065.00;4988937;28;20090;-82
2023/01/06 07:43:18;;;;;;;6.60;3.45;;;;;;;9.92;94.73;101063.63;4982061;28;20138;-83
2023/01/06 07:45:46;;;;;;;12.48;7.97;;;;;;;9.88;94.87;101058.84;4970376;28;20134;-83
2023/01/06 07:48:13;;;;;;;17.30;8.95;;;;;;;9.97;94.78;101068.44;4981298;28;20114;-82
2023/01/06 07:50:40;;;;;;;19.20;11.10;;;;;;;10.02;94.41;101063.59;4981810;28;20465;-82
2023/01/06 07:53:09;;;;;;;9.80;5.75;;;;;;;10.04;94.59;101066.06;4981181;28;20562;-82
2023/01/06 07:56:00;;;;;;;8.70;5.53;;;;;;;10.02;94.51;101057.53;4966499;28;20070;-81
2023/01/06 07:58:40;;;;;;;3.88;3.15;;;;;;;10.01;94.62;101067.19;4961512;29;20055;-84
2023/01/06 08:01:08;;;;;;;5.70;1.95;;;;;;;9.99;94.59;101054.25;4982075;28;20080;-83
2023/01/06 08:03:41;;;;;;;3.28;1.90;;;;;;;9.91;94.46;101029.81;4980170;28;20578;-83
2023/01/06 08:06:10;;;;;;;3.70;1.40;;;;;;;10.11;94.08;101062.75;4997036;28;20046;-83
2023/01/06 08:08:37;;;;;;;2.47;2.28;;;;;;;10.12;94.40;101085.31;4998273;28;20106;-83
2023/01/06 08:11:04;;;;;;;1.63;1.15;;;;;;;10.08;94.55;101076.13;4980243;28;20479;-82
2023/01/06 08:13:31;;;;;;;3.60;1.10;;;;;;;10.19;94.39;101094.28;4979434;28;20069;-81
2023/01/06 08:15:58;;;;;;;1.85;1.63;;;;;;;10.16;94.27;101088.47;4986799;28;20046;-83
2023/01/06 08:18:24;;;;;;;6.72;4.65;;;;;;;10.20;94.43;101087.25;5001436;28;20058;-82
2023/01/06 08:20:51;;;;;;;3.63;2.25;;;;;;;10.26;94.13;101095.38;5003045;28;20113;-81
2023/01/06 08:23:19;;;;;;;5.57;2.40;;;;;;;10.36;93.89;101097.97;5000659;28;20066;-82
2023/01/06 08:25:45;;;;;;;4.22;1.70;;;;;;;10.35;94.09;101088.47;5008083;23;20077;-78
2023/01/06 08:28:12;;;;;;;2.03;1.48;;;;;;;10.38;94.04;101092.59;4986341;28;20051;-78
2023/01/06 08:30:40;;;;;;;3.40;2.50;;;;;;;10.44;94.04;101086.75;4990229;28;20073;-79
2023/01/06 08:33:07;;;;;;;1.67;1.13;;;;;;;10.47;93.82;101089.91;4987359;28;20050;-79
2023/01/06 08:35:33;;;;;;;1.17;1.15;;;;;;;10.57;93.83;101085.47;4988629;28;20130;-79
2023/01/06 08:38:00;;;;;;;1.67;1.20;;;;;;;10.57;93.53;101088.06;4996521;28;20107;-79
2023/01/06 08:40:28;;;;;;;1.90;1.58;;;;;;;10.59;93.12;101093.16;4988280;28;20074;-79
2023/01/06 08:42:54;;;;;;;2.40;1.30;;;;;;;10.59;93.44;101101.84;4988102;28;20134;-80
2023/01/06 08:45:21;;;;;;;1.17;1.05;;;;;;;10.66;93.53;101094.25;4990593;28;20085;-79
2023/01/06 08:47:48;;;;;;;1.58;1.00;;;;;;;10.68;93.45;101099.34;4990732;28;20047;-80
2023/01/06 08:50:14;;;;;;;1.67;1.10;;;;;;;10.63;93.58;101105.81;4989719;28;20397;-80
2023/01/06 08:52:41;;;;;;;1.42;1.02;;;;;;;10.64;93.65;101101.41;4990402;28;20114;-80
2023/01/06 08:55:08;;;;;;;1.85;1.40;;;;;;;10.63;93.94;101099.75;4991711;28;20046;-80
2023/01/06 08:57:35;;;;;;;6.82;1.75;;;;;;;10.63;94.33;101112.84;4987369;28;20062;-81
2023/01/06 09:00:03;;;;;;;3.22;1.52;;;;;;;10.67;94.11;101108.16;4989023;28;20089;-81
2023/01/06 09:02:30;;;;;;;1.38;1.10;;;;;;;10.68;94.33;101123.72;4991564;28;20142;-80
2023/01/06 09:04:57;;;;;;;3.63;1.20;;;;;;;10.72;94.13;101119.84;4998459;28;20043;-80
2023/01/06 09:07:23;;;;;;;2.97;0.93;;;;;;;10.78;94.40;101132.34;4988741;28;20085;-79
2023/01/06 09:09:50;;;;;;;2.38;1.25;;;;;;;10.75;94.55;101132.63;4989335;28;20106;-80
2023/01/06 09:12:17;;;;;;;1.33;0.95;;;;;;;10.83;94.63;101145.00;4988979;28;20047;-80
2023/01/06 09:14:45;;;;;;;5.40;1.48;;;;;;;10.83;94.94;101135.34;4988221;28;20058;-81
2023/01/06 09:17:11;;;;;;;2.05;1.50;;;;;;;10.78;95.37;101140.19;4989399;28;20081;-80
2023/01/06 09:19:38;;;;;;;1.52;1.13;;;;;;;10.70;96.22;101153.19;4988589;28;20101;-80
2023/01/06 09:22:05;;;;;;;5.60;1.00;;;;;;;10.64;97.04;101157.19;4988163;28;20074;-81
2023/01/06 09:24:32;;;;;;;1.50;1.40;;;;;;;10.66;97.40;101141.34;4987804;28;20047;-80
2023/01/06 09:26:59;;;;;;;6.63;5.13;;;;;;;10.68;97.62;101139.41;4988647;28;20558;-80
2023/01/06 09:29:25;;;;;;;3.45;1.73;;;;;;;10.66;97.33;101130.88;4989583;28;20164;-80
2023/01/06 09:31:53;;;;;;;5.15;1.80;;;;;;;10.69;97.58;101135.81;4989892;28;20131;-81
2023/01/06 09:34:20;;;;;;;4.10;1.52;;;;;;;10.70;97.51;101145.34;4989346;28;20051;-81
2023/01/06 09:36:47;;;;;;;1.13;0.77;;;;;;;10.75;97.54;101150.13;4989285;28;20081;-80
2023/01/06 09:39:13;;;;;;;2.15;1.52;;;;;;;10.78;97.52;101155.91;4988719;28;20138;-83
2023/01/06 09:42:08;;;;;;;2.22;1.00;;;;;;;10.81;97.35;101155.63;4987984;28;20047;-80
2023/01/06 09:44:44;;;;;;;2.97;1.08;;;;;;;10.86;97.55;101168.28;4976130;28;20542;-79
2023/01/06 09:47:16;;;;;;;2.78;1.23;;;;;;;10.89;97.15;101179.25;4989395;28;20046;-81
2023/01/06 09:49:46;;;;;;;1.55;0.90;;;;;;;10.89;97.15;101174.03;4988397;28;20106;-81
2023/01/06 09:52:19;;;;;;;4.22;1.88;;;;;;;10.89;97.30;101179.25;4990559;28;20085;-81
2023/01/06 09:54:52;;;;;;;1.75;1.00;;;;;;;10.92;97.66;101175.53;4991082;28;20062;-80
2023/01/06 09:57:21;;;;;;;;;;;;;;;10.86;97.98;101181.38;4984716;28;20131;-80
2023/01/06 09:59:55;;;;;;;1.75;0.90;;;;;;;10.86;98.42;101182.19;4990893;28;20008;-82
2023/01/06 10:02:30;;;;;;;4.03;1.10;;;;;;;10.92;98.05;101176.34;4986159;28;20050;-82
2023/01/06 10:04:56;;;;;;;2.28;1.05;;;;;;;11.02;97.38;101160.59;4984656;28;20039;-81
2023/01/06 10:07:32;;;;;;;0.65;0.65;;;;;;;11.01;96.98;101171.22;4986542;28;20081;-82
2023/01/06 10:10:14;;;;;;;3.63;1.42;;;;;;;11.10;96.82;101181.66;4991245;28;20082;-82
2023/01/06 10:12:52;;;;;;;1.83;0.77;;;;;;;11.06;97.26;101180.28;4993853;28;20105;-82
2023/01/06 10:15:25;;;;;;;2.80;1.27;;;;;;;11.05;96.88;101180.44;4992691;28;20546;-81
2023/01/06 10:17:57;;;;;;;;;;;;;;;10.98;97.61;101175.78;4992423;28;20043;-83
2023/01/06 10:20:45;;;;;;;2.60;1.15;;;;;;;10.94;98.24;101187.50;4993049;28;20049;-85
2023/01/06 10:23:28;;;;;;;1.00;0.90;;;;;;;10.89;98.63;101188.91;4992938;28;20552;-81
2023/01/06 10:26:01;;;;;;;2.38;1.90;;;;;;;10.98;98.83;101178.41;4990281;28;20105;-82
2023/01/06 10:28:32;;;;;;;2.90;1.85;;;;;;;10.95;98.99;101183.91;4989769;28;20114;-83
2023/01/06 10:31:05;;;;;;;4.18;2.72;;;;;;;10.91;99.40;101172.09;4991765;28;20106;-83
2023/01/06 10:33:44;;;;;;;5.78;1.02;;;;;;;10.95;99.26;101186.53;4994304;28;20042;-82
2023/01/06 10:36:13;;;;;;;9.90;3.08;;;;;;;10.94;99.16;101177.03;4995194;28;20046;-81
2023/01/06 10:38:43;;;;;;;1.88;1.70;;;;;;;10.93;99.12;101169.31;4996576;28;20117;-81
2023/01/06 10:41:20;;;;;;;2.55;1.40;;;;;;;11.03;99.17;101185.00;4997645;28;20054;-80
2023/01/06 10:43:47;;;;;;;2.33;1.50;;;;;;;10.99;99.18;101168.75;4994620;28;20073;-80
2023/01/06 10:46:15;;;;;;;2.22;1.00;;;;;;;11.06;99.75;101189.94;4996729;28;20046;-81
2023/01/06 10:48:45;;;;;;;0.85;0.85;;;;;;;11.24;99.63;101189.03;4993380;28;20482;-80
2023/01/06 10:51:36;;;;;;;1.75;1.10;;;;;;;11.34;98.94;101167.19;4986810;28;20050;-81
2023/01/06 10:54:13;;;;;;;1.52;1.40;;;;;;;11.51;98.34;101189.94;4986855;28;20419;-81
2023/01/06 10:56:45;;;;;;;1.55;1.40;;;;;;;11.58;98.46;101191.84;4981344;28;20109;-81
2023/01/06 10:59:13;;;;;;;2.90;1.10;;;;;;;11.32;99.12;101164.72;4985959;28;20057;-81
2023/01/06 11:01:49;;;;;;;2.53;0.98;;;;;;;11.38;99.17;101182.44;4988205;28;20145;-82
2023/01/06 11:04:18;;;;;;;4.15;2.13;;;;;;;11.43;98.95;101188.06;4983041;28;20051;-81
2023/01/06 11:06:49;;;;;;;2.05;1.20;;;;;;;11.36;98.83;101187.00;4986200;28;20046;-80
2023/01/06 11:09:28;;;;;;;3.45;1.02;;;;;;;11.40;98.77;101175.25;4984294;28;20051;-82
2023/01/06 11:11:57;;;;;;;1.27;1.17;;;;;;;11.49;98.29;101171.75;4991694;28;20145;-81
2023/01/06 11:14:28;;;;;;;5.30;1.73;;;;;;;11.50;97.98;101169.94;4996980;28;20137;-83
2023/01/06 11:16:57;;;;;;;2.15;1.38;;;;;;;11.67;97.81;101194.53;4987598;28;20134;-80
2023/01/06 11:19:35;;;;;;;5.25;1.33;;;;;;;11.53;97.53;101180.97;4978188;28;20053;-81
2023/01/06 11:22:01;;;;;;;1.85;1.10;;;;;;;11.46;97.26;101179.91;4982852;28;20050;-81
2023/01/06 11:24:30;;;;;;;4.18;1.85;;;;;;;11.45;97.56;101180.06;4984359;28;20069;-84
2023/01/06 11:26:58;;;;;;;6.45;1.85;;;;;;;11.50;97.49;101177.81;4981389;28;20050;-82
2023/01/06 11:29:31;;;;;;;2.00;1.45;;;;;;;11.59;97.23;101172.50;4985679;28;20066;-82
2023/01/06 11:32:03;;;;;;;3.17;1.98;;;;;;;11.56;97.07;101179.84;4982075;28;20089;-82
2023/01/06 11:34:32;;;;;;;3.47;1.50;;;;;;;11.53;96.96;101170.47;4987624;28;20550;-82
2023/01/06 11:36:59;;;;;;;4.22;1.70;;;;;;;11.50;96.53;101168.16;4992323;28;20074;-79
2023/01/06 11:39:29;;;;;;;2.65;1.55;;;;;;;11.49;96.51;101166.50;4989627;28;20059;-80
2023/01/06 11:42:03;;;;;;;4.47;1.35;;;;;;;11.48;96.37;101159.63;4988498;28;20050;-80
2023/01/06 11:44:33;;;;;;;7.00;2.03;;;;;;;11.23;96.97;101128.91;4985870;28;20066;-82